Welcome to Northern Hawkes Bay. New Zealand.
PWS Header
      nz Flag



Hit Counter


W3C Valid W3C Valid logo


    Wairoa

Select any of the Stations below to visit their websites.










Historic Data from Weather Underground
Select the location of interest below. Wairoa is the default. Please have patience, this Data is slow to load in.
Northern Hawkes Bay Historical Data
Daily Summary for July 26, 2017 Units:  English    Metric   Both
« Previous Day
Next Day »
Daily Weekly Monthly Yearly Custom
  High: Low: Average:
Temperature: 65.5 °F 38.8 °F 49.1 °F
Dew Point: 44.1 °F 38.7 °F 41.7 °F
Humidity: 99% 40% 79%
Wind Speed: 8.3mph 0mph 3.1mph
Wind Gust: 10.7mph - -
Wind- - WSW
Pressure: 29.8 in 29.7 in -
Precipitation: 0 in    
Historical Graphs
 
 
Tabular Data for July 26, 2017
Time Temperature Dew Point Pressure Wind Wind Speed Wind Gust Humidity Rainfall Rate (Hourly) solar
00:03 45.3 °F 44.1 °F 29.7 in NNW 3.8 mph 6 mph 95% 0 in 0 W/m2
00:08 45.3 °F 44.1 °F 29.7 in NW 3.8 mph 6.9 mph 95% 0 in 0 W/m2
00:13 45.3 °F 44.1 °F 29.7 in NW 3.1 mph 6.9 mph 95% 0 in 0 W/m2
00:18 45.1 °F 43.9 °F 29.7 in NW 3.8 mph 6 mph 95% 0 in 0 W/m2
00:23 45 °F 43.3 °F 29.7 in NW 2.2 mph 6 mph 94% 0 in 0 W/m2
00:28 44.8 °F 43.2 °F 29.7 in NW 2.2 mph 5.4 mph 94% 0 in 0 W/m2
00:33 44.8 °F 43.3 °F 29.7 in NW 3.8 mph 5.4 mph 95% 0 in 0 W/m2
00:38 44.8 °F 43.3 °F 29.7 in NW 3.1 mph 6 mph 95% 0 in 0 W/m2
00:43 44.8 °F 43.3 °F 29.7 in NW 3.1 mph 6 mph 95% 0 in 0 W/m2
00:48 44.6 °F 43.3 °F 29.7 in NW 3.1 mph 6 mph 95% 0 in 0 W/m2
00:53 44.4 °F 43.3 °F 29.7 in NW 3.1 mph 5.4 mph 96% 0 in 0 W/m2
00:58 44.2 °F 43.2 °F 29.7 in NW 3.1 mph 4.5 mph 96% 0 in 0 W/m2
01:03 44.2 °F 43.2 °F 29.7 in NW 2.2 mph 4.5 mph 96% 0 in 0 W/m2
01:08 44.1 °F 43 °F 29.7 in NW 2.2 mph 4.5 mph 96% 0 in 0 W/m2
01:13 43.9 °F 42.8 °F 29.7 in NNW 1.6 mph 3.8 mph 96% 0 in 0 W/m2
01:18 43.9 °F 42.8 °F 29.7 in NNW 1.6 mph 3.8 mph 96% 0 in 0 W/m2
01:23 43.9 °F 42.8 °F 29.7 in NW 3.1 mph 3.8 mph 96% 0 in 0 W/m2
01:28 43.9 °F 42.8 °F 29.7 in NW 4.5 mph 6 mph 96% 0 in 0 W/m2
01:33 43.9 °F 42.8 °F 29.7 in NW 3.8 mph 6 mph 96% 0 in 0 W/m2
01:38 43.7 °F 42.6 °F 29.7 in NW 3.1 mph 6 mph 96% 0 in 0 W/m2
01:43 43.7 °F 43 °F 29.7 in NW 3.8 mph 5.4 mph 97% 0 in 0 W/m2
02:01 43.5 °F 42.6 °F 29.7 in NNW 3.8 mph 5.4 mph 97% 0 in 0 W/m2
02:06 43.5 °F 42.6 °F 29.7 in NW 3.1 mph 5.4 mph 97% 0 in 0 W/m2
02:11 43.5 °F 42.6 °F 29.7 in NW 2.2 mph 5.4 mph 97% 0 in 0 W/m2
02:16 43.3 °F 42.4 °F 29.7 in NW 3.1 mph 4.5 mph 97% 0 in 0 W/m2
02:21 43.3 °F 42.4 °F 29.7 in NW 2.2 mph 4.5 mph 97% 0 in 0 W/m2
02:26 43.2 °F 42.4 °F 29.7 in NW 2.2 mph 4.5 mph 97% 0 in 0 W/m2
02:31 43 °F 42.3 °F 29.7 in NW 3.1 mph 4.5 mph 97% 0 in 0 W/m2
02:36 42.8 °F 42.1 °F 29.7 in NNW 3.1 mph 4.5 mph 97% 0 in 0 W/m2
02:41 42.6 °F 42.1 °F 29.7 in NNW 3.8 mph 4.5 mph 98% 0 in 0 W/m2
02:46 42.8 °F 42.1 °F 29.7 in NNW 3.8 mph 4.5 mph 97% 0 in 0 W/m2
02:51 42.8 °F 42.1 °F 29.7 in NNW 3.1 mph 4.5 mph 97% 0 in 0 W/m2
02:56 42.8 °F 42.1 °F 29.7 in NNW 3.1 mph 4.5 mph 97% 0 in 0 W/m2
03:01 42.8 °F 42.1 °F 29.7 in NW 2.2 mph 4.5 mph 97% 0 in 0 W/m2
03:06 42.8 °F 42.1 °F 29.7 in NW 3.1 mph 4.5 mph 97% 0 in 0 W/m2
03:11 42.6 °F 42.4 °F 29.7 in NW 3.1 mph 4.5 mph 99% 0 in 0 W/m2
03:16 42.6 °F 42.4 °F 29.7 in NNW 3.1 mph 4.5 mph 99% 0 in 0 W/m2
03:21 42.8 °F 42.3 °F 29.7 in NNW 3.1 mph 4.5 mph 98% 0 in 0 W/m2
03:26 42.6 °F 42.4 °F 29.7 in NNW 2.2 mph 4.5 mph 99% 0 in 0 W/m2
03:31 42.4 °F 42.3 °F 29.7 in NNW 3.1 mph 4.5 mph 99% 0 in 0 W/m2
03:36 42.3 °F 42.1 °F 29.7 in NW 3.1 mph 4.5 mph 99% 0 in 0 W/m2
03:41 42.3 °F 42.1 °F 29.7 in NW 3.1 mph 5.4 mph 99% 0 in 0 W/m2
03:46 42.1 °F 41.7 °F 29.7 in NNW 3.8 mph 5.4 mph 99% 0 in 0 W/m2
03:51 41.9 °F 41.5 °F 29.7 in NNW 3.8 mph 4.5 mph 99% 0 in 0 W/m2
03:56 41.7 °F 41.2 °F 29.7 in NNW 3.1 mph 5.4 mph 98% 0 in 0 W/m2
04:01 41.5 °F 41 °F 29.7 in NW 3.8 mph 5.4 mph 98% 0 in 0 W/m2
04:06 41.5 °F 41 °F 29.7 in NW 3.8 mph 5.4 mph 98% 0 in 0 W/m2
04:11 41.5 °F 41 °F 29.7 in NW 3.8 mph 5.4 mph 98% 0 in 0 W/m2
04:16 41.5 °F 41 °F 29.7 in NNW 3.1 mph 5.4 mph 98% 0 in 0 W/m2
04:21 41.4 °F 40.8 °F 29.7 in NNW 3.8 mph 5.4 mph 98% 0 in 0 W/m2
04:26 41.4 °F 40.8 °F 29.7 in NNW 3.8 mph 6 mph 98% 0 in 0 W/m2
04:31 41.2 °F 40.6 °F 29.7 in NW 3.1 mph 6 mph 98% 0 in 0 W/m2
04:36 41.2 °F 40.6 °F 29.7 in NNW 2.2 mph 6 mph 98% 0 in 0 W/m2
04:41 41 °F 40.5 °F 29.7 in NNW 3.1 mph 5.4 mph 98% 0 in 0 W/m2
04:46 40.8 °F 40.6 °F 29.7 in NNW 3.1 mph 4.5 mph 99% 0 in 0 W/m2
04:51 40.8 °F 40.6 °F 29.7 in NNW 3.8 mph 6 mph 99% 0 in 0 W/m2
04:56 40.6 °F 40.5 °F 29.7 in NNW 3.1 mph 6 mph 99% 0 in 0 W/m2
05:01 40.5 °F 40.3 °F 29.7 in NNW 3.1 mph 6 mph 99% 0 in 0 W/m2
05:06 40.5 °F 40.3 °F 29.7 in NNW 3.8 mph 6 mph 99% 0 in 0 W/m2
05:11 40.5 °F 40.3 °F 29.7 in NNW 3.8 mph 6 mph 99% 0 in 0 W/m2
05:16 40.5 °F 40.3 °F 29.7 in NNW 3.8 mph 5.4 mph 99% 0 in 0 W/m2
05:21 40.3 °F 39.9 °F 29.7 in NNW 3.1 mph 5.4 mph 99% 0 in 0 W/m2
05:26 40.1 °F 39.7 °F 29.7 in NNW 3.1 mph 4.5 mph 99% 0 in 0 W/m2
05:31 40.1 °F 39.7 °F 29.7 in North 2.2 mph 4.5 mph 99% 0 in 0 W/m2
05:36 40.1 °F 39.7 °F 29.7 in North 3.1 mph 3.8 mph 99% 0 in 0 W/m2
05:41 39.9 °F 39.7 °F 29.7 in NNW 3.1 mph 3.8 mph 99% 0 in 0 W/m2
05:46 40.1 °F 39.7 °F 29.7 in NW 3.1 mph 5.4 mph 99% 0 in 0 W/m2
05:51 40.1 °F 39.7 °F 29.7 in NNW 3.1 mph 5.4 mph 99% 0 in 0 W/m2
05:56 40.1 °F 39.7 °F 29.7 in NNW 3.8 mph 6 mph 99% 0 in 0 W/m2
06:01 40.1 °F 39.7 °F 29.7 in NNW 3.1 mph 6.9 mph 99% 0 in 0 W/m2
06:06 40.5 °F 40.3 °F 29.7 in NNW 3.1 mph 6.9 mph 99% 0 in 0 W/m2
06:11 40.6 °F 40.5 °F 29.7 in NNW 3.1 mph 6.9 mph 99% 0 in 0 W/m2
06:16 40.5 °F 40.3 °F 29.7 in NNW 3.1 mph 6.9 mph 99% 0 in 0 W/m2
06:21 40.1 °F 39.7 °F 29.8 in NNW 3.1 mph 6 mph 99% 0 in 0 W/m2
06:26 39.7 °F 39.6 °F 29.7 in NW 3.8 mph 6.9 mph 99% 0 in 0 W/m2
06:31 39.7 °F 39.6 °F 29.8 in NNW 3.8 mph 6.9 mph 99% 0 in 0 W/m2
06:36 39.6 °F 39.4 °F 29.8 in North 3.1 mph 6 mph 99% 0 in 0 W/m2
06:41 39.4 °F 39 °F 29.8 in NNW 3.1 mph 5.4 mph 99% 0 in 0 W/m2
06:46 39.4 °F 39 °F 29.7 in NNW 2.2 mph 4.5 mph 99% 0 in 0 W/m2
06:51 39.4 °F 39 °F 29.8 in NNW 3.1 mph 5.4 mph 99% 0 in 0 W/m2
06:56 39.4 °F 39 °F 29.8 in NW 3.1 mph 5.4 mph 99% 0 in 0 W/m2
07:01 39 °F 38.8 °F 29.8 in NW 3.8 mph 5.4 mph 99% 0 in 0 W/m2
07:06 38.8 °F 38.7 °F 29.8 in NNW 3.1 mph 5.4 mph 99% 0 in 0 W/m2
07:11 38.8 °F 38.7 °F 29.8 in NNW 3.8 mph 5.4 mph 99% 0 in 0 W/m2
07:16 38.8 °F 38.7 °F 29.8 in NNW 3.8 mph 6 mph 99% 0 in 0 W/m2
07:21 38.8 °F 38.7 °F 29.8 in NNW 3.1 mph 6 mph 99% 0 in 0 W/m2
07:26 38.8 °F 38.7 °F 29.8 in NNW 3.8 mph 5.4 mph 99% 0 in 2 W/m2
07:31 38.8 °F 38.7 °F 29.8 in NNW 3.1 mph 5.4 mph 99% 0 in 4 W/m2
07:36 38.8 °F 38.7 °F 29.8 in North 2.2 mph 5.4 mph 99% 0 in 7 W/m2
07:42 39.4 °F 39 °F 29.8 in NNW 3.1 mph 6 mph 99% 0 in 36 W/m2
07:47 39.9 °F 39.7 °F 29.8 in NNW 3.8 mph 6 mph 99% 0 in 47 W/m2
07:52 40.1 °F 39.7 °F 29.8 in NW 4.5 mph 6 mph 99% 0 in 61 W/m2
07:57 40.6 °F 40.5 °F 29.8 in NNW 3.1 mph 6.9 mph 99% 0 in 73 W/m2
08:02 41 °F 40.5 °F 29.8 in NNW 5.4 mph 7.6 mph 98% 0 in 82 W/m2
08:07 41.4 °F 40.8 °F 29.8 in NNW 5.4 mph 7.6 mph 98% 0 in 91 W/m2
08:12 41.9 °F 41.2 °F 29.8 in North 6 mph 9.2 mph 97% 0 in 101 W/m2
08:17 42.4 °F 41.7 °F 29.8 in North 5.4 mph 9.2 mph 97% 0 in 111 W/m2
08:22 43 °F 41.5 °F 29.8 in NNW 5.4 mph 8.3 mph 95% 0 in 120 W/m2
08:27 43.2 °F 41.4 °F 29.8 in NW 5.4 mph 9.2 mph 93% 0 in 128 W/m2
08:32 43.3 °F 41.2 °F 29.8 in NNW 3.8 mph 9.2 mph 92% 0 in 137 W/m2
08:37 43.9 °F 41.4 °F 29.8 in NNW 5.4 mph 8.3 mph 91% 0 in 148 W/m2
08:42 44.2 °F 41.5 °F 29.8 in NNW 6 mph 9.2 mph 90% 0 in 155 W/m2
08:47 44.4 °F 41.4 °F 29.8 in North 6 mph 9.2 mph 89% 0 in 161 W/m2
08:52 44.4 °F 41.2 °F 29.8 in North 8.3 mph 10.7 mph 88% 0 in 171 W/m2
08:58 44.8 °F 40.8 °F 29.8 in North 4.5 mph 10.7 mph 86% 0 in 182 W/m2
09:03 45.3 °F 41.4 °F 29.8 in NNW 4.5 mph 10.7 mph 86% 0 in 191 W/m2
09:08 45.9 °F 41.5 °F 29.8 in North 4.5 mph 9.2 mph 85% 0 in 199 W/m2
09:13 46.6 °F 42.1 °F 29.8 in North 3.1 mph 9.2 mph 84% 0 in 207 W/m2
09:18 47.1 °F 41.9 °F 29.8 in North 3.8 mph 8.3 mph 82% 0 in 215 W/m2
09:23 47.1 °F 41.4 °F 29.8 in NNW 5.4 mph 9.2 mph 80% 0 in 221 W/m2
09:28 47.3 °F 41.4 °F 29.8 in NNW 4.5 mph 9.2 mph 80% 0 in 226 W/m2
09:33 48.4 °F 42.3 °F 29.8 in North 5.4 mph 8.3 mph 79% 0 in 227 W/m2
09:38 48.7 °F 41.9 °F 29.8 in North 4.5 mph 9.2 mph 77% 0 in 153 W/m2
09:43 49.1 °F 41.9 °F 29.8 in North 5.4 mph 9.2 mph 76% 0 in 89 W/m2
09:48 49.1 °F 41.5 °F 29.8 in North 4.5 mph 9.2 mph 75% 0 in 62 W/m2
09:53 49.6 °F 42.1 °F 29.8 in North 4.5 mph 9.2 mph 75% 0 in 58 W/m2
09:58 50 °F 41.7 °F 29.8 in North 5.4 mph 9.2 mph 73% 0 in 55 W/m2
10:03 50.2 °F 41.9 °F 29.8 in North 3.8 mph 9.2 mph 73% 0 in 53 W/m2
10:08 50.5 °F 41.9 °F 29.8 in North 6 mph 9.2 mph 72% 0 in 51 W/m2
10:13 50.7 °F 42.1 °F 29.8 in North 4.5 mph 9.2 mph 72% 0 in 50 W/m2
10:18 51.1 °F 42.4 °F 29.8 in North 4.5 mph 9.2 mph 72% 0 in 50 W/m2
10:23 51.4 °F 42.4 °F 29.8 in NNW 4.5 mph 9.2 mph 71% 0 in 50 W/m2
10:28 51.4 °F 42.1 °F 29.8 in NNW 6 mph 9.8 mph 70% 0 in 49 W/m2
10:33 51.4 °F 42.4 °F 29.8 in NNW 6.9 mph 10.7 mph 71% 0 in 49 W/m2
10:38 51.4 °F 42.4 °F 29.8 in NNW 3.8 mph 10.7 mph 71% 0 in 50 W/m2
10:43 52.2 °F 42.3 °F 29.8 in NNW 2.2 mph 9.2 mph 69% 0 in 51 W/m2
10:48 52.7 °F 42.8 °F 29.8 in North 4.5 mph 8.3 mph 69% 0 in 53 W/m2
10:53 53.1 °F 43.2 °F 29.8 in NNE 5.4 mph 8.3 mph 69% 0 in 73 W/m2
10:58 53.4 °F 43.5 °F 29.8 in North 3.1 mph 8.3 mph 69% 0 in 129 W/m2
11:03 53.4 °F 43.5 °F 29.8 in NNW 3.8 mph 7.6 mph 69% 0 in 172 W/m2
11:08 53.6 °F 43 °F 29.8 in NNW 4.5 mph 6.9 mph 67% 0 in 211 W/m2
11:27 54.9 °F 43 °F 29.8 in NNW 5.4 mph 6.9 mph 64% 0 in 233 W/m2
11:32 55.6 °F 44.1 °F 29.8 in NNW 2.2 mph 6.9 mph 65% 0 in 232 W/m2
11:37 56.3 °F 43.5 °F 29.8 in North 0.7 mph 6.9 mph 62% 0 in 226 W/m2
11:42 57.4 °F 42.6 °F 29.8 in North 3.1 mph 4.5 mph 58% 0 in 216 W/m2
11:47 58.1 °F 43 °F 29.8 in NNE 3.8 mph 5.4 mph 57% 0 in 213 W/m2
11:52 58.1 °F 42.4 °F 29.8 in NNE 3.1 mph 5.4 mph 56% 0 in 202 W/m2
11:57 58.3 °F 42.3 °F 29.8 in North 3.1 mph 6 mph 55% 0 in 194 W/m2
12:02 58.6 °F 42.1 °F 29.8 in NW 1.6 mph 6 mph 54% 0 in 179 W/m2
12:07 59.4 °F 42.6 °F 29.8 in NNW 1.6 mph 5.4 mph 54% 0 in 166 W/m2
12:12 59.7 °F 42.6 °F 29.8 in NNE 3.1 mph 4.5 mph 53% 0 in 153 W/m2
12:17 60.4 °F 43.2 °F 29.8 in NNE 1.6 mph 4.5 mph 53% 0 in 134 W/m2
12:22 61 °F 42.3 °F 29.8 in NNE 2.2 mph 5.4 mph 50% 0 in 115 W/m2
12:27 61.2 °F 43 °F 29.8 in North 3.1 mph 5.4 mph 51% 0 in 102 W/m2
12:32 61.5 °F 41.7 °F 29.8 in NNE 2.2 mph 5.4 mph 48% 0 in 83 W/m2
12:37 61.2 °F 41.4 °F 29.8 in NNE 3.1 mph 7.6 mph 48% 0 in 74 W/m2
12:42 61.9 °F 43.2 °F 29.8 in NNE 2.2 mph 7.6 mph 50% 0 in 69 W/m2
12:47 61.9 °F 41.4 °F 29.8 in NE 2.2 mph 4.5 mph 47% 0 in 68 W/m2
12:52 62.4 °F 41.9 °F 29.8 in Calm   4.5 mph 47% 0 in 67 W/m2
12:57 63.9 °F 42.1 °F 29.8 in West 3.1 mph 4.5 mph 45% 0 in 67 W/m2
13:02 61.9 °F 40.8 °F 29.8 in SSW 3.1 mph 6 mph 46% 0 in 65 W/m2
13:07 61.3 °F 41 °F 29.8 in SW 0.7 mph 6 mph 47% 0 in 59 W/m2
13:12 63.1 °F 42.6 °F 29.8 in WSW 2.2 mph 4.5 mph 47% 0 in 56 W/m2
13:17 64.2 °F 42.4 °F 29.8 in SSW 1.6 mph 3.8 mph 45% 0 in 56 W/m2
13:22 64.2 °F 41.9 °F 29.8 in SSW 1.6 mph 3.8 mph 44% 0 in 55 W/m2
13:27 64.2 °F 41.9 °F 29.8 in SSW 2.2 mph 6.9 mph 44% 0 in 54 W/m2
13:32 63.5 °F 41.2 °F 29.8 in NW 2.2 mph 6.9 mph 44% 0 in 54 W/m2
13:37 64.2 °F 41.9 °F 29.8 in North 3.8 mph 6 mph 44% 0 in 55 W/m2
13:42 62.4 °F 40.8 °F 29.8 in NE 1.6 mph 6.9 mph 45% 0 in 55 W/m2
13:47 63.5 °F 41.2 °F 29.8 in Calm   6.9 mph 44% 0 in 56 W/m2
13:52 63.1 °F 39.7 °F 29.8 in South 3.1 mph 6 mph 42% 0 in 57 W/m2
13:57 63.5 °F 39.9 °F 29.8 in SSW 3.8 mph 6 mph 42% 0 in 58 W/m2
14:02 64.4 °F 40.3 °F 29.8 in South 2.2 mph 6 mph 41% 0 in 59 W/m2
14:07 64.4 °F 39.6 °F 29.8 in SSE 3.1 mph 6 mph 40% 0 in 61 W/m2
14:12 63.5 °F 38.8 °F 29.8 in SE 2.2 mph 5.4 mph 40% 0 in 63 W/m2
14:17 63.3 °F 39.2 °F 29.8 in ESE 3.1 mph 5.4 mph 41% 0 in 64 W/m2
14:22 63.9 °F 39.7 °F 29.8 in SE 3.1 mph 3.8 mph 41% 0 in 70 W/m2
14:27 63.3 °F 39.2 °F 29.8 in SSE 2.2 mph 5.4 mph 41% 0 in 97 W/m2
14:32 63.9 °F 39.7 °F 29.8 in South 0.7 mph 5.4 mph 41% 0 in 144 W/m2
14:37 65.1 °F 40.8 °F 29.8 in SSE 1.6 mph 4.5 mph 41% 0 in 178 W/m2
14:42 65.5 °F 41.2 °F 29.8 in South 2.2 mph 3.8 mph 41% 0 in 180 W/m2
14:47 64.6 °F 40.5 °F 29.8 in SSW 3.1 mph 3.8 mph 41% 0 in 179 W/m2
14:52 63.9 °F 40.3 °F 29.8 in South 3.8 mph 5.4 mph 42% 0 in 169 W/m2
14:58 63.9 °F 40.3 °F 29.8 in SE 2.2 mph 5.4 mph 42% 0 in 166 W/m2
15:03 63.7 °F 40.3 °F 29.8 in ESE 1.6 mph 4.5 mph 42% 0 in 159 W/m2
15:08 64.2 °F 41.4 °F 29.8 in ESE 2.2 mph 4.5 mph 43% 0 in 151 W/m2
15:13 63.7 °F 40.8 °F 29.8 in ESE 1.6 mph 3.8 mph 43% 0 in 145 W/m2
15:18 64.2 °F 41.4 °F 29.8 in ESE 1.6 mph 3.8 mph 43% 0 in 139 W/m2
15:23 64.4 °F 42.6 °F 29.8 in East 1.6 mph 3.8 mph 45% 0 in 132 W/m2
15:28 63.7 °F 41.4 °F 29.8 in ENE 3.1 mph 4.5 mph 44% 0 in 126 W/m2
15:33 64 °F 41.7 °F 29.8 in NE 2.2 mph 4.5 mph 44% 0 in 120 W/m2
15:38 63.7 °F 40.8 °F 29.8 in NE 2.2 mph 4.5 mph 43% 0 in 113 W/m2
15:43 64.6 °F 42.8 °F 29.8 in NE 1.6 mph 4.5 mph 45% 0 in 107 W/m2
15:48 65.1 °F 41.5 °F 29.8 in NE 2.2 mph 3.8 mph 42% 0 in 101 W/m2
15:53 64.8 °F 43 °F 29.8 in NE 3.8 mph 6.9 mph 45% 0 in 93 W/m2
15:58 63.7 °F 41.4 °F 29.8 in NE 3.8 mph 6.9 mph 44% 0 in 82 W/m2
16:03 62.4 °F 41.4 °F 29.8 in NE 3.1 mph 6.9 mph 46% 0 in 68 W/m2
16:08 62.1 °F 42.3 °F 29.8 in ENE 2.2 mph 5.4 mph 48% 0 in 58 W/m2
16:13 62.8 °F 41.7 °F 29.8 in ENE 1.6 mph 5.4 mph 46% 0 in 52 W/m2
16:18 63 °F 41.9 °F 29.8 in NE 2.2 mph 3.8 mph 46% 0 in 46 W/m2
16:23 63 °F 41.9 °F 29.8 in NE 3.1 mph 4.5 mph 46% 0 in 41 W/m2
16:28 62.6 °F 41.5 °F 29.8 in NE 1.6 mph 4.5 mph 46% 0 in 36 W/m2
16:33 62.4 °F 42.4 °F 29.8 in NE 1.6 mph 4.5 mph 48% 0 in 32 W/m2
16:38 62.1 °F 42.3 °F 29.8 in ENE 1.6 mph 3.8 mph 48% 0 in 29 W/m2
16:43 61.5 °F 42.3 °F 29.8 in NE 2.2 mph 3.8 mph 49% 0 in 28 W/m2
16:48 61 °F 42.6 °F 29.8 in NE 1.6 mph 3.8 mph 51% 0 in 25 W/m2
16:53 60.3 °F 43.2 °F 29.8 in NE 2.2 mph 3.8 mph 53% 0 in 20 W/m2
16:59 59.7 °F 43.2 °F 29.8 in NE 0.7 mph 3.1 mph 54% 0 in 13 W/m2
17:04 59.2 °F 43 °F 29.8 in NE 0.7 mph 3.1 mph 55% 0 in 7 W/m2
17:09 57.4 °F 42.3 °F 29.8 in NE 0.7 mph 2.2 mph 57% 0 in 3 W/m2
17:14 55.9 °F 42.6 °F 29.8 in NE 0.7 mph 2.2 mph 61% 0 in 0 W/m2
17:19 54.9 °F 42.4 °F 29.8 in NNE 0.7 mph 2.2 mph 63% 0 in 0 W/m2
17:24 54.1 °F 42.3 °F 29.8 in North 0.7 mph 2.2 mph 64% 0 in 0 W/m2
17:29 53.4 °F 43.2 °F 29.8 in North 1.6 mph 2.2 mph 68% 0 in 0 W/m2
17:34 53.2 °F 43.3 °F 29.8 in North 0.7 mph 2.2 mph 69% 0 in 0 W/m2
17:39 52.7 °F 43.2 °F 29.8 in North 1.6 mph 2.2 mph 70% 0 in 0 W/m2
17:44 51.8 °F 43.2 °F 29.8 in North 1.6 mph 3.1 mph 72% 0 in 0 W/m2
17:49 51.1 °F 43.2 °F 29.8 in NNW 0.7 mph 3.1 mph 74% 0 in 0 W/m2
17:54 50.5 °F 43 °F 29.8 in NNW 1.6 mph 3.1 mph 75% 0 in 0 W/m2
17:59 50.2 °F 43 °F 29.8 in North 1.6 mph 3.1 mph 76% 0 in 0 W/m2
18:04 49.8 °F 43.2 °F 29.8 in North 1.6 mph 3.1 mph 78% 0 in 0 W/m2
18:09 49.3 °F 42.6 °F 29.8 in North 1.6 mph 2.2 mph 78% 0 in 0 W/m2
18:14 48.7 °F 43 °F 29.8 in North 1.6 mph 3.1 mph 80% 0 in 0 W/m2
18:19 48.6 °F 43 °F 29.8 in North 2.2 mph 3.1 mph 81% 0 in 0 W/m2
18:24 48.6 °F 43.5 °F 29.8 in North 2.2 mph 3.8 mph 83% 0 in 0 W/m2
18:29 48.6 °F 44.1 °F 29.8 in North 1.6 mph 3.8 mph 84% 0 in 0 W/m2
18:34 48.6 °F 44.1 °F 29.8 in North 2.2 mph 3.8 mph 84% 0 in 0 W/m2
18:39 48.7 °F 44.1 °F 29.8 in North 1.6 mph 3.8 mph 84% 0 in 0 W/m2
18:44 48.7 °F 44.1 °F 29.8 in North 2.2 mph 3.8 mph 84% 0 in 0 W/m2
18:49 48.7 °F 44.1 °F 29.8 in North 1.6 mph 3.8 mph 84% 0 in 0 W/m2
18:54 48.6 °F 44.1 °F 29.8 in North 2.2 mph 4.5 mph 84% 0 in 0 W/m2
18:59 48.6 °F 44.1 °F 29.8 in North 3.8 mph 6 mph 84% 0 in 0 W/m2
19:04 48.7 °F 44.1 °F 29.8 in NNW 4.5 mph 6.9 mph 84% 0 in 0 W/m2
19:10 48.7 °F 44.1 °F 29.8 in NW 3.8 mph 7.6 mph 84% 0 in 0 W/m2
19:15 48.6 °F 44.1 °F 29.8 in NW 5.4 mph 7.6 mph 84% 0 in 0 W/m2
19:20 48.4 °F 43.9 °F 29.8 in NW 3.1 mph 6.9 mph 84% 0 in 0 W/m2
19:26 47.8 °F 43.5 °F 29.8 in NNW 3.1 mph 5.4 mph 85% 0 in 0 W/m2
19:31 47.8 °F 43.5 °F 29.8 in NNW 3.8 mph 6 mph 85% 0 in 0 W/m2
19:36 47.8 °F 43.9 °F 29.8 in NNW 3.8 mph 6 mph 86% 0 in 0 W/m2
19:41 47.7 °F 43.7 °F 29.8 in NW 3.1 mph 6 mph 86% 0 in 0 W/m2
19:46 47.3 °F 43.3 °F 29.8 in NW 3.1 mph 4.5 mph 86% 0 in 0 W/m2
19:52 46.9 °F 43 °F 29.8 in NNW 3.8 mph 5.4 mph 86% 0 in 0 W/m2
19:57 46.8 °F 42.8 °F 29.8 in NNW 3.8 mph 6 mph 86% 0 in 0 W/m2
20:02 46.6 °F 43 °F 29.8 in NW 3.8 mph 6 mph 87% 0 in 0 W/m2
20:07 46.2 °F 42.6 °F 29.8 in NW 3.1 mph 5.4 mph 87% 0 in 0 W/m2
20:12 46 °F 42.4 °F 29.8 in NW 3.8 mph 6.9 mph 87% 0 in 0 W/m2
20:17 46 °F 42.6 °F 29.8 in NW 3.8 mph 6.9 mph 88% 0 in 0 W/m2
20:22 45.9 °F 42.4 °F 29.8 in NW 3.1 mph 6 mph 88% 0 in 0 W/m2
20:27 45.7 °F 42.3 °F 29.8 in NNW 3.8 mph 5.4 mph 88% 0 in 0 W/m2
20:32 45.5 °F 42.3 °F 29.8 in NNW 1.6 mph 5.4 mph 88% 0 in 0 W/m2
20:37 45.1 °F 41.7 °F 29.8 in NNW 3.1 mph 5.4 mph 88% 0 in 0 W/m2
20:42 45 °F 41.9 °F 29.8 in NNW 2.2 mph 3.8 mph 89% 0 in 0 W/m2
20:47 45.1 °F 42.1 °F 29.8 in NNW 2.2 mph 4.5 mph 89% 0 in 0 W/m2
20:52 45.3 °F 42.3 °F 29.8 in NNW 1.6 mph 4.5 mph 89% 0 in 0 W/m2
20:57 45.3 °F 42.3 °F 29.8 in NNW 3.1 mph 4.5 mph 89% 0 in 0 W/m2
21:02 45.3 °F 42.3 °F 29.8 in NW 2.2 mph 4.5 mph 89% 0 in 0 W/m2
21:07 45.1 °F 41.7 °F 29.8 in NW 0.7 mph 4.5 mph 88% 0 in 0 W/m2
21:12 44.8 °F 41.4 °F 29.8 in NW 2.2 mph 3.1 mph 88% 0 in 0 W/m2
21:17 44.4 °F 41.4 °F 29.8 in NW 2.2 mph 3.1 mph 89% 0 in 0 W/m2
21:22 44.1 °F 41 °F 29.8 in NW 2.2 mph 3.8 mph 89% 0 in 0 W/m2
21:27 43.9 °F 40.8 °F 29.8 in NW 3.1 mph 4.5 mph 89% 0 in 0 W/m2
21:32 44.1 °F 41.4 °F 29.8 in North 3.8 mph 6 mph 90% 0 in 0 W/m2
21:37 44.6 °F 41.9 °F 29.8 in North 3.8 mph 6.9 mph 90% 0 in 0 W/m2
21:42 44.8 °F 42.1 °F 29.8 in North 3.8 mph 6.9 mph 90% 0 in 0 W/m2
21:47 44.8 °F 41.7 °F 29.8 in NNW 3.1 mph 6.9 mph 89% 0 in 0 W/m2
21:52 45 °F 41.9 °F 29.8 in North 2.2 mph 6.9 mph 89% 0 in 0 W/m2
21:57 44.8 °F 41.4 °F 29.8 in North 1.6 mph 6.9 mph 88% 0 in 0 W/m2
22:02 44.4 °F 41.4 °F 29.8 in North 2.2 mph 5.4 mph 89% 0 in 0 W/m2
22:07 44.2 °F 41.2 °F 29.8 in North 1.6 mph 4.5 mph 89% 0 in 0 W/m2
22:12 44.1 °F 41 °F 29.8 in North 2.2 mph 4.5 mph 89% 0 in 0 W/m2
22:17 44.1 °F 41 °F 29.8 in North 3.1 mph 4.5 mph 89% 0 in 0 W/m2
22:22 44.1 °F 41 °F 29.8 in North 3.1 mph 5.4 mph 89% 0 in 0 W/m2
22:27 44.2 °F 41.2 °F 29.8 in NNW 3.8 mph 6 mph 89% 0 in 0 W/m2
22:32 44.2 °F 41.2 °F 29.8 in NNW 3.1 mph 8.3 mph 89% 0 in 0 W/m2
22:37 44.2 °F 41.2 °F 29.8 in NNW 2.2 mph 8.3 mph 89% 0 in 0 W/m2
22:42 43.9 °F 40.8 °F 29.8 in NNW 3.1 mph 6 mph 89% 0 in 0 W/m2
22:47 43.7 °F 40.6 °F 29.8 in North 3.8 mph 5.4 mph 89% 0 in 0 W/m2
22:52 43.3 °F 40.3 °F 29.8 in North 4.5 mph 6.9 mph 89% 0 in 0 W/m2
22:57 43.3 °F 40.6 °F 29.8 in NNW 6 mph 9.2 mph 90% 0 in 0 W/m2
23:02 43.3 °F 40.6 °F 29.8 in NW 4.5 mph 9.2 mph 90% 0 in 0 W/m2
23:18 42.8 °F 40.5 °F 29.8 in NNW 4.5 mph 8.3 mph 91% 0 in 0 W/m2
23:23 42.8 °F 40.5 °F 29.8 in NNW 4.5 mph 9.2 mph 91% 0 in 0 W/m2
23:28 42.8 °F 40.5 °F 29.8 in NNW 5.4 mph 9.2 mph 91% 0 in 0 W/m2
23:33 43 °F 40.5 °F 29.8 in NNW 6 mph 8.3 mph 91% 0 in 0 W/m2
23:38 43 °F 40.5 °F 29.8 in NNW 6 mph 9.2 mph 91% 0 in 0 W/m2
23:43 43 °F 40.5 °F 29.8 in NNW 3.8 mph 9.2 mph 91% 0 in 0 W/m2
23:48 42.8 °F 40.5 °F 29.8 in NNW 7.6 mph 9.8 mph 91% 0 in 0 W/m2
23:53 42.6 °F 40.5 °F 29.8 in NNW 6 mph 9.8 mph 92% 0 in 0 W/m2
23:58 42.6 °F 40.5 °F 29.8 in NNW 4.5 mph 8.3 mph 92% 0 in 0 W/m2
Northern Hawkes Bay. New Zealand Historic Data
Compliments of Weather Underground - 2 mb